LFRM

Details ICAO LFRM (LME)
Name Le Mans Arnage
Region France
Timezone Europe/Paris (UTC+1.0)
Plans Departing 17
Arriving 34
Stats Elevation 194 ft / 59 m (AMSL)
Location 47.947839° 0.201291°
Runways 1
Magnetic Variation 0.008° W
Sunrise 2017-12-12 07:41:04 UTC / 2017-12-12 08:41:04 Local
Sunset 2017-12-12 16:07:38 UTC / 2017-12-12 17:07:38 Local
Advertisement - Login to hide

Runways

ID Width Length Bearing (true) Bearing (mag) Surface Threshold Offset Overrun Length
02 98 ft / 30 m 4,657 ft / 1,420 m 20.27° 20.28° Asphalt 0 ft / 0 m 0 ft / 0 m
20 98 ft / 30 m 4,657 ft / 1,420 m 200.28° 200.29° Asphalt 918 ft / 280 m 0 ft / 0 m

Approach Navaids

Runway Type Ident Frequency Range Bearing (true) Bearing (mag) Slope Elevation
02 Localiser LEM 109.75 MHz 18 nm / 33 km 20.27° 20.28° - 194 ft / 59 m (AMSL)
02 DME LEM 109.75 MHz 18 nm / 33 km - - - 180 ft / 55 m (AMSL)

Map

Weather


0- 5 10 15 20 25 30 35+ Temperature / ° C

Clouds and Precipitation
Forecast for 2017-12-12 12:00 UTC. Updated 2 hours ago

Ground ~20,000 ft ~40,000 ft Winds

METAR

LFRM 121030Z AUTO 25006KT 220V290 CAVOK 03/00 Q1013 NOSIG

TAF

Not found

Frequencies

Tower 125.90 MHz LE MANS TWR
Warning: Do not use this data for real-world aviation or navigation. No guarantee of current accuracy is given.